createdAt,value
2018-02-14T00:01:42.981Z,86.80
2018-02-14T00:04:11.277Z,86.33
2018-02-14T00:06:39.545Z,86.31
2018-02-14T00:09:07.808Z,86.61
2018-02-14T00:11:36.864Z,87.70
2018-02-14T00:14:05.176Z,88.59
2018-02-14T00:16:33.481Z,87.23
2018-02-14T00:19:01.765Z,86.61
2018-02-14T00:21:30.804Z,85.71
2018-02-14T00:23:59.073Z,85.75
2018-02-14T00:26:27.368Z,84.71
2018-02-14T00:28:55.627Z,85.67
2018-02-14T00:31:23.913Z,84.62
2018-02-14T00:33:52.200Z,84.53
2018-02-14T00:36:20.496Z,85.07
2018-02-14T00:38:48.759Z,85.14
2018-02-14T00:41:17.029Z,84.89
2018-02-14T00:43:45.313Z,85.97
2018-02-14T00:46:13.610Z,86.45
2018-02-14T00:48:41.874Z,86.32
2018-02-14T00:51:10.148Z,87.23
2018-02-14T00:53:38.435Z,87.51
2018-02-14T00:56:06.725Z,87.31
2018-02-14T00:58:35.860Z,87.97
2018-02-14T01:01:04.150Z,88.07
2018-02-14T01:03:32.427Z,87.96
2018-02-14T01:06:00.730Z,87.26
2018-02-14T01:08:28.996Z,87.10
2018-02-14T01:10:57.287Z,86.78
2018-02-14T01:13:25.574Z,86.79
2018-02-14T01:15:54.612Z,86.75
2018-02-14T01:18:22.889Z,86.59
2018-02-14T01:20:51.171Z,86.14
2018-02-14T01:23:19.440Z,86.71
2018-02-14T01:25:47.722Z,86.42
2018-02-14T01:28:15.995Z,85.97
2018-02-14T01:30:44.788Z,85.83
2018-02-14T01:33:13.055Z,86.29
2018-02-14T01:35:41.340Z,86.12
2018-02-14T01:38:09.604Z,85.48
2018-02-14T01:40:37.876Z,85.48
2018-02-14T01:43:06.177Z,85.42
2018-02-14T01:45:34.449Z,84.73
2018-02-14T01:48:02.715Z,84.19
2018-02-14T01:50:39.819Z,84.12
2018-02-14T01:53:08.092Z,83.91
2018-02-14T01:55:36.373Z,84.33
2018-02-14T01:58:04.672Z,84.90
2018-02-14T02:00:32.945Z,84.34
2018-02-14T02:03:01.209Z,85.04
2018-02-14T02:05:29.497Z,85.16
2018-02-14T02:07:57.777Z,84.36
2018-02-14T02:10:26.050Z,84.59
2018-02-14T02:12:54.344Z,86.49
2018-02-14T02:15:23.384Z,87.26
2018-02-14T02:17:51.668Z,87.49
2018-02-14T02:20:19.960Z,88.25
2018-02-14T02:22:48.216Z,88.80
2018-02-14T02:25:16.484Z,88.15
2018-02-14T02:27:44.778Z,87.33
2018-02-14T02:30:13.036Z,86.71
2018-02-14T02:32:41.433Z,86.01
2018-02-14T02:35:09.713Z,86.13
2018-02-14T02:37:37.984Z,86.54
2018-02-14T02:40:23.990Z,86.17
2018-02-14T02:42:52.251Z,85.79
2018-02-14T02:45:20.533Z,85.28
2018-02-14T02:47:48.977Z,85.17
2018-02-14T02:50:17.254Z,85.46
2018-02-14T02:52:45.524Z,86.60
2018-02-14T02:55:13.813Z,87.17
2018-02-14T02:57:42.081Z,86.27
2018-02-14T03:00:10.765Z,85.21
2018-02-14T03:02:39.054Z,84.89
2018-02-14T03:05:07.316Z,84.60
2018-02-14T03:07:35.585Z,85.31
2018-02-14T03:10:03.872Z,85.15
2018-02-14T03:12:32.143Z,84.29
2018-02-14T03:15:00.412Z,84.99
2018-02-14T03:17:28.704Z,84.67
2018-02-14T03:19:56.998Z,83.93
2018-02-14T03:22:25.264Z,84.18
2018-02-14T03:24:53.584Z,84.70
2018-02-14T03:27:22.624Z,84.87
2018-02-14T03:29:50.993Z,85.72
2018-02-14T03:32:19.277Z,84.98
2018-02-14T03:34:47.539Z,84.82
2018-02-14T03:37:15.819Z,85.10
2018-02-14T03:39:44.084Z,84.26
2018-02-14T03:42:12.373Z,84.13
2018-02-14T03:44:40.650Z,85.42
2018-02-14T03:47:08.925Z,85.59
2018-02-14T03:49:37.212Z,86.14
2018-02-14T03:52:05.486Z,86.27
2018-02-14T03:54:33.764Z,85.09
2018-02-14T03:57:02.036Z,84.53
2018-02-14T03:59:30.308Z,83.46
2018-02-14T04:01:58.597Z,82.73
2018-02-14T04:04:26.872Z,83.39
2018-02-14T04:06:55.153Z,84.29
2018-02-14T04:09:23.437Z,84.22
2018-02-14T04:11:51.705Z,84.36
2018-02-14T04:14:19.981Z,83.89
2018-02-14T04:16:48.261Z,83.78
2018-02-14T04:19:16.557Z,83.28
2018-02-14T04:21:44.897Z,82.71
2018-02-14T04:24:13.313Z,82.52
2018-02-14T04:26:41.580Z,83.42
2018-02-14T04:29:09.856Z,84.21
2018-02-14T04:31:38.145Z,83.44
2018-02-14T04:34:06.422Z,82.74
2018-02-14T04:36:34.703Z,82.75
2018-02-14T04:39:02.974Z,83.60
2018-02-14T04:41:32.029Z,84.48
2018-02-14T04:44:00.304Z,84.26
2018-02-14T04:46:28.567Z,84.22
2018-02-14T04:48:56.859Z,84.78
2018-02-14T04:51:25.128Z,84.51
2018-02-14T04:53:53.404Z,84.84
2018-02-14T04:56:21.680Z,85.07
2018-02-14T04:58:49.981Z,84.28
2018-02-14T05:01:18.256Z,83.99
2018-02-14T05:03:46.529Z,84.05
2018-02-14T05:06:14.810Z,83.69
2018-02-14T05:08:43.851Z,83.55
2018-02-14T05:11:12.129Z,83.38
2018-02-14T05:13:40.407Z,83.37
2018-02-14T05:16:08.685Z,83.60
2018-02-14T05:18:36.961Z,83.81
2018-02-14T05:21:05.231Z,84.10
2018-02-14T05:23:33.507Z,83.96
2018-02-14T05:26:01.801Z,84.01
2018-02-14T05:28:30.076Z,83.31
2018-02-14T05:30:58.377Z,83.03
2018-02-14T05:33:26.666Z,84.11
2018-02-14T05:35:54.944Z,83.86
2018-02-14T05:38:23.220Z,84.65
2018-02-14T05:40:51.492Z,84.69
2018-02-14T05:43:19.765Z,84.92
2018-02-14T05:45:48.050Z,85.45
2018-02-14T05:48:16.319Z,85.80
2018-02-14T05:50:44.593Z,85.73
2018-02-14T05:53:12.913Z,84.96
2018-02-14T05:55:41.144Z,84.39
2018-02-14T05:58:09.412Z,84.45
2018-02-14T06:00:37.762Z,84.78
2018-02-14T06:03:06.028Z,84.89
2018-02-14T06:05:34.295Z,84.84
2018-02-14T06:08:03.348Z,84.46
2018-02-14T06:10:31.620Z,84.45
2018-02-14T06:12:59.902Z,84.33
2018-02-14T06:15:28.169Z,84.02
2018-02-14T06:17:57.207Z,84.42
2018-02-14T06:20:26.256Z,83.87
2018-02-14T06:22:54.614Z,83.72
2018-02-14T06:25:22.877Z,83.96
2018-02-14T06:27:51.216Z,83.26
2018-02-14T06:30:20.268Z,83.24
2018-02-14T06:32:48.536Z,83.02
2018-02-14T06:35:16.812Z,83.33
2018-02-14T06:37:45.098Z,83.89
2018-02-14T06:40:13.354Z,83.21
2018-02-14T06:42:41.639Z,83.86
2018-02-14T06:45:09.909Z,84.63
2018-02-14T06:47:38.207Z,84.81
2018-02-14T06:50:06.491Z,84.53
2018-02-14T06:52:34.750Z,84.30
2018-02-14T06:55:03.038Z,84.80
2018-02-14T06:57:31.306Z,84.56
2018-02-14T06:59:59.603Z,83.76
2018-02-14T07:02:27.912Z,83.67
2018-02-14T07:04:56.944Z,83.32
2018-02-14T07:07:25.225Z,83.63
2018-02-14T07:09:53.496Z,83.65
2018-02-14T07:12:21.797Z,83.86
2018-02-14T07:14:50.096Z,84.16
2018-02-14T07:17:18.356Z,84.67
2018-02-14T07:19:46.643Z,84.49
2018-02-14T07:22:14.910Z,84.58
2018-02-14T07:24:43.198Z,84.92
2018-02-14T07:27:11.519Z,84.92
2018-02-14T07:29:39.793Z,84.43
2018-02-14T07:32:08.053Z,84.73
2018-02-14T07:34:36.324Z,84.48
2018-02-14T07:37:04.596Z,83.81
2018-02-14T07:39:33.646Z,83.59
2018-02-14T07:42:01.931Z,83.66
2018-02-14T07:44:30.193Z,84.25
2018-02-14T07:46:58.513Z,84.02
2018-02-14T07:49:27.548Z,83.26
2018-02-14T07:51:55.813Z,82.80
2018-02-14T07:54:24.104Z,83.32
2018-02-14T07:56:52.372Z,83.00
2018-02-14T07:59:20.641Z,82.89
2018-02-14T08:01:48.932Z,81.71
2018-02-14T08:04:17.200Z,81.87
2018-02-14T08:06:45.490Z,81.89
2018-02-14T08:09:13.775Z,81.54
2018-02-14T08:11:42.048Z,82.15
2018-02-14T08:14:10.333Z,82.31
2018-02-14T08:16:38.612Z,83.15
2018-02-14T08:19:06.906Z,83.39
2018-02-14T08:21:35.944Z,83.59
2018-02-14T08:24:04.212Z,83.99
2018-02-14T08:26:32.506Z,84.47
2018-02-14T08:29:01.949Z,85.24
2018-02-14T08:31:30.220Z,84.33
2018-02-14T08:33:58.509Z,84.27
2018-02-14T08:36:27.547Z,83.59
2018-02-14T08:38:56.761Z,83.56
2018-02-14T08:41:25.045Z,83.18
2018-02-14T08:43:53.328Z,82.67
2018-02-14T08:46:21.595Z,81.93
2018-02-14T08:48:49.869Z,82.60
2018-02-14T08:51:18.152Z,82.37
2018-02-14T08:53:46.420Z,83.05
2018-02-14T08:56:14.716Z,82.70
2018-02-14T08:58:42.998Z,81.90
2018-02-14T09:01:11.263Z,81.84
2018-02-14T09:03:39.544Z,81.99
2018-02-14T09:06:07.820Z,81.36
2018-02-14T09:08:36.141Z,81.57
2018-02-14T09:11:04.428Z,81.76
2018-02-14T09:16:00.980Z,80.42
2018-02-14T09:18:29.271Z,80.00
2018-02-14T09:20:58.316Z,81.08
2018-02-14T09:23:27.364Z,81.06
2018-02-14T09:25:55.644Z,80.61
2018-02-14T09:28:23.908Z,79.49
2018-02-14T09:30:52.195Z,78.53
2018-02-14T09:33:20.478Z,79.44
2018-02-14T09:35:49.555Z,78.10
2018-02-14T09:38:17.843Z,78.26
2018-02-14T09:40:46.114Z,78.20
2018-02-14T09:43:14.395Z,77.70
2018-02-14T09:45:42.668Z,77.73
2018-02-14T09:48:10.957Z,77.72
2018-02-14T09:50:39.244Z,76.77
2018-02-14T09:53:07.516Z,76.62
2018-02-14T09:55:35.824Z,76.31
2018-02-14T09:58:04.104Z,75.94
2018-02-14T10:00:33.153Z,75.74
2018-02-14T10:03:01.430Z,75.82
2018-02-14T10:05:29.708Z,75.71
2018-02-14T10:07:57.985Z,74.91
2018-02-14T10:10:26.253Z,74.59
2018-02-14T10:12:54.529Z,74.78
2018-02-14T10:15:22.823Z,74.98
2018-02-14T10:17:51.096Z,74.62
2018-02-14T10:20:19.359Z,74.61
2018-02-14T10:22:47.646Z,73.87
2018-02-14T10:25:15.912Z,73.16
2018-02-14T10:27:44.189Z,72.50
2018-02-14T10:30:12.450Z,72.21
2018-02-14T10:32:40.708Z,72.37
2018-02-14T10:35:08.988Z,72.16
2018-02-14T10:37:37.258Z,71.48
2018-02-14T10:40:05.511Z,71.06
2018-02-14T10:42:33.784Z,70.93
2018-02-14T10:45:02.063Z,70.87
2018-02-14T10:47:30.332Z,70.60
2018-02-14T10:49:59.393Z,70.93
2018-02-14T10:52:27.654Z,69.80
2018-02-14T10:54:55.932Z,68.77
2018-02-14T10:57:24.222Z,67.86
2018-02-14T10:59:52.487Z,66.58
2018-02-14T11:02:20.740Z,66.74
2018-02-14T11:04:54.432Z,67.22
2018-02-14T11:07:22.701Z,65.78
2018-02-14T11:09:50.956Z,66.73
2018-02-14T11:12:20.001Z,65.79
2018-02-14T11:14:48.260Z,65.48
2018-02-14T11:17:16.526Z,64.30
2018-02-14T11:19:44.815Z,63.07
2018-02-14T11:22:13.095Z,62.79
2018-02-14T11:24:41.356Z,62.59
2018-02-14T11:27:09.633Z,60.61
2018-02-14T11:29:37.900Z,61.10
2018-02-14T11:32:06.160Z,59.54
2018-02-14T11:34:34.433Z,59.43
2018-02-14T11:37:04.700Z,60.42
2018-02-14T11:39:32.956Z,60.13
2018-02-14T11:42:01.238Z,59.99
2018-02-14T11:44:29.488Z,59.96
2018-02-14T11:46:57.752Z,59.47
2018-02-14T11:49:26.804Z,60.05
2018-02-14T11:51:55.060Z,57.33
2018-02-14T11:54:23.329Z,56.62
2018-02-14T11:56:51.611Z,57.69
2018-02-14T11:59:19.877Z,57.82
2018-02-14T12:01:48.147Z,55.98
2018-02-14T12:04:16.404Z,55.64
2018-02-14T12:06:45.448Z,56.09
2018-02-14T12:09:13.708Z,54.79
2018-02-14T12:11:41.993Z,55.19
2018-02-14T12:14:10.263Z,55.60
2018-02-14T12:16:38.529Z,54.36
2018-02-14T12:19:06.792Z,53.83
2018-02-14T12:21:35.073Z,53.11
2018-02-14T12:24:03.345Z,54.19
2018-02-14T12:26:31.614Z,53.43
2018-02-14T12:28:59.893Z,53.00
2018-02-14T12:31:28.152Z,52.08
2018-02-14T12:33:57.171Z,50.21
2018-02-14T12:36:25.449Z,49.82
2018-02-14T12:38:55.241Z,50.93
2018-02-14T12:41:24.277Z,50.01
2018-02-14T12:43:52.536Z,49.72
2018-02-14T12:46:20.808Z,49.05
2018-02-14T12:48:49.077Z,48.72
2018-02-14T12:51:17.335Z,48.05
2018-02-14T12:53:46.388Z,46.61
2018-02-14T12:56:14.640Z,45.88
2018-02-14T12:58:42.915Z,45.81
2018-02-14T13:01:11.177Z,46.41
2018-02-14T13:03:39.454Z,46.89
2018-02-14T13:06:07.713Z,46.64
2018-02-14T13:08:35.986Z,46.97
2018-02-14T13:11:04.248Z,46.22
2018-02-14T13:13:33.292Z,46.00
2018-02-14T13:16:01.557Z,45.33
2018-02-14T13:18:29.816Z,46.35
2018-02-14T13:20:58.120Z,45.84
2018-02-14T13:23:26.393Z,44.93
2018-02-14T13:25:54.692Z,44.75
2018-02-14T13:28:22.956Z,43.28
2018-02-14T13:30:51.235Z,43.48
2018-02-14T13:33:19.517Z,41.45
2018-02-14T13:35:47.783Z,40.41
2018-02-14T13:38:16.073Z,40.84
2018-02-14T13:40:44.348Z,39.16
2018-02-14T13:43:12.637Z,38.21
2018-02-14T13:45:40.900Z,40.33
2018-02-14T13:48:09.172Z,40.30
2018-02-14T13:50:37.462Z,39.34
2018-02-14T13:53:05.724Z,38.74
2018-02-14T13:55:33.981Z,41.23
2018-02-14T13:58:02.345Z,41.41
2018-02-14T14:00:30.611Z,40.00
2018-02-14T14:02:58.880Z,38.58
2018-02-14T14:05:27.161Z,36.98
2018-02-14T14:07:55.429Z,35.96
2018-02-14T14:10:23.705Z,36.22
2018-02-14T14:12:51.988Z,36.33
2018-02-14T14:15:20.268Z,35.11
2018-02-14T14:17:48.546Z,35.67
2018-02-14T14:20:16.832Z,36.00
2018-02-14T14:22:45.109Z,34.13
2018-02-14T14:25:13.385Z,34.32
2018-02-14T14:27:41.664Z,34.96
2018-02-14T14:30:09.960Z,34.42
2018-02-14T14:32:38.231Z,34.12
2018-02-14T14:35:06.684Z,33.78
2018-02-14T14:37:34.951Z,33.56
2018-02-14T14:40:03.236Z,32.30
2018-02-14T14:42:31.522Z,32.76
2018-02-14T14:44:59.901Z,32.90
2018-02-14T14:47:28.183Z,33.01
2018-02-14T14:49:56.472Z,32.60
2018-02-14T14:52:24.758Z,32.33
2018-02-14T14:54:53.057Z,32.40
2018-02-14T14:57:21.308Z,31.40
2018-02-14T14:59:49.645Z,30.34
2018-02-14T15:02:18.033Z,31.37
2018-02-14T15:04:46.358Z,31.05
2018-02-14T15:07:14.604Z,30.81
2018-02-14T15:09:42.964Z,30.49
2018-02-14T15:12:11.252Z,30.47
2018-02-14T15:14:39.613Z,30.83
2018-02-14T15:17:07.901Z,31.10
2018-02-14T15:19:36.211Z,30.26
2018-02-14T15:22:04.589Z,30.67
2018-02-14T15:24:32.833Z,30.33
2018-02-14T15:27:01.127Z,30.44
2018-02-14T15:29:29.393Z,30.52
2018-02-14T15:31:57.857Z,31.38
2018-02-14T15:34:26.149Z,31.10
2018-02-14T15:36:54.440Z,31.27
2018-02-14T15:39:22.829Z,31.41
2018-02-14T15:41:51.125Z,32.42
2018-02-14T15:44:20.262Z,32.92
2018-02-14T15:46:48.538Z,34.48
2018-02-14T15:49:16.911Z,35.78
2018-02-14T15:51:45.184Z,37.53
2018-02-14T15:54:13.570Z,38.13
2018-02-14T15:56:41.993Z,39.16
2018-02-14T15:59:10.287Z,40.42
2018-02-14T16:01:39.314Z,42.63
2018-02-14T16:04:07.697Z,43.03
2018-02-14T16:06:35.955Z,43.73
2018-02-14T16:09:04.233Z,44.43
2018-02-14T16:11:32.531Z,45.39
2018-02-14T16:14:00.796Z,45.52
2018-02-14T16:16:29.056Z,46.16
2018-02-14T16:18:57.336Z,46.82
2018-02-14T16:21:25.596Z,47.19
2018-02-14T16:23:54.720Z,48.24
2018-02-14T16:26:23.019Z,48.99
2018-02-14T16:28:51.390Z,49.40
2018-02-14T16:31:19.639Z,50.20
2018-02-14T16:33:47.937Z,50.50
2018-02-14T16:36:16.200Z,50.47
2018-02-14T16:38:44.468Z,51.25
2018-02-14T16:41:12.752Z,52.30
2018-02-14T16:43:41.051Z,54.21
2018-02-14T16:46:09.316Z,55.61
2018-02-14T16:48:37.620Z,57.17
2018-02-14T16:51:05.883Z,57.70
2018-02-14T16:53:34.145Z,58.68
2018-02-14T16:56:02.448Z,59.25
2018-02-14T16:58:30.738Z,58.71
2018-02-14T17:00:59.013Z,59.80
2018-02-14T17:03:27.289Z,61.91
2018-02-14T17:05:55.618Z,62.13
2018-02-14T17:08:23.892Z,63.09
2018-02-14T17:10:52.279Z,63.64
2018-02-14T17:13:20.544Z,64.57
2018-02-14T17:15:48.824Z,65.03
2018-02-14T17:18:17.089Z,65.31
2018-02-14T17:20:45.359Z,65.25
2018-02-14T17:23:13.795Z,65.55
2018-02-14T17:25:42.842Z,65.67
2018-02-14T17:28:11.102Z,66.19
2018-02-14T17:30:39.382Z,67.27
2018-02-14T17:33:07.633Z,67.25
2018-02-14T17:35:36.661Z,67.79
2018-02-14T17:38:04.939Z,67.62
2018-02-14T17:40:33.275Z,66.80
2018-02-14T17:43:01.709Z,66.56
2018-02-14T17:45:30.001Z,66.73
2018-02-14T17:47:58.343Z,66.95
2018-02-14T17:50:26.825Z,67.59
2018-02-14T17:52:55.108Z,68.72
2018-02-14T17:55:23.441Z,68.76
2018-02-14T17:57:52.647Z,68.98
2018-02-14T18:00:21.899Z,69.29
2018-02-14T18:02:51.376Z,69.53
2018-02-14T18:05:20.116Z,69.68
2018-02-14T18:07:49.683Z,68.97
2018-02-14T18:10:19.587Z,68.31
2018-02-14T18:12:49.171Z,67.96
2018-02-14T18:15:17.994Z,67.81
2018-02-14T18:17:47.257Z,67.58
2018-02-14T18:20:16.605Z,67.87
2018-02-14T18:22:46.587Z,67.31
2018-02-14T18:25:16.459Z,67.45
2018-02-14T18:27:46.276Z,67.52
2018-02-14T18:30:16.431Z,67.97
2018-02-14T18:32:46.675Z,68.88
2018-02-14T18:35:16.694Z,69.05
2018-02-14T18:37:46.632Z,68.58
2018-02-14T18:40:16.600Z,69.51
2018-02-14T18:42:46.450Z,69.60
2018-02-14T18:45:16.221Z,69.44
2018-02-14T18:47:47.633Z,69.38
2018-02-14T18:50:17.496Z,69.41
2018-02-14T18:52:48.371Z,69.85
2018-02-14T18:55:18.238Z,70.40
2018-02-14T18:57:49.218Z,70.49
2018-02-14T19:00:20.019Z,70.66
2018-02-14T19:02:51.201Z,71.32
2018-02-14T19:05:21.428Z,71.36
2018-02-14T19:07:51.632Z,70.92
2018-02-14T19:10:21.521Z,70.39
2018-02-14T19:12:52.201Z,69.86
2018-02-14T19:15:21.975Z,70.23
2018-02-14T19:17:52.109Z,70.72
2018-02-14T19:20:23.236Z,71.04
2018-02-14T19:22:53.029Z,71.14
2018-02-14T19:25:23.846Z,71.22
2018-02-14T19:27:53.826Z,70.89
2018-02-14T19:30:23.753Z,70.82
2018-02-14T19:32:53.700Z,70.56
2018-02-14T19:35:24.561Z,70.05
2018-02-14T19:37:54.503Z,69.06
2018-02-14T19:40:24.556Z,67.96
2018-02-14T19:42:54.559Z,67.29
2018-02-14T19:45:25.560Z,66.72
2018-02-14T19:47:55.805Z,67.50
2018-02-14T19:50:25.172Z,67.33
2018-02-14T19:52:56.024Z,67.39
2018-02-14T19:55:25.861Z,66.74
2018-02-14T19:57:55.420Z,66.78
2018-02-14T20:00:26.386Z,66.33
2018-02-14T20:02:56.495Z,66.04
2018-02-14T20:05:26.232Z,65.96
2018-02-14T20:07:56.228Z,66.09
2018-02-14T20:10:26.150Z,66.50
2018-02-14T20:12:55.597Z,67.15
2018-02-14T20:15:25.589Z,66.79
2018-02-14T20:17:55.219Z,65.93
2018-02-14T20:20:24.699Z,66.06
2018-02-14T20:22:54.183Z,66.02
2018-02-14T20:25:23.651Z,65.66
2018-02-14T20:27:54.813Z,65.60
2018-02-14T20:30:24.159Z,66.38
2018-02-14T20:32:53.609Z,66.56
2018-02-14T20:35:23.129Z,66.80
2018-02-14T20:37:52.409Z,67.36
2018-02-14T20:40:21.774Z,68.92
2018-02-14T20:42:51.318Z,69.32
2018-02-14T20:45:20.630Z,70.03
2018-02-14T20:47:50.907Z,70.44
2018-02-14T20:50:20.281Z,70.70
2018-02-14T20:52:49.709Z,70.30
2018-02-14T20:55:19.153Z,70.29
2018-02-14T20:57:49.264Z,70.09
2018-02-14T21:00:19.486Z,70.32
2018-02-14T21:02:48.801Z,70.77
2018-02-14T21:05:18.144Z,71.25
2018-02-14T21:07:47.548Z,71.85
2018-02-14T21:10:17.100Z,72.44
2018-02-14T21:12:47.286Z,72.04
2018-02-14T21:15:16.716Z,72.08
2018-02-14T21:17:47.035Z,71.53
2018-02-14T21:20:17.132Z,71.45
2018-02-14T21:22:46.821Z,71.28
2018-02-14T21:25:16.194Z,70.91
2018-02-14T21:27:45.500Z,70.52
2018-02-14T21:30:14.916Z,70.06
2018-02-14T21:32:44.306Z,69.70
2018-02-14T21:35:13.771Z,69.50
2018-02-14T21:37:43.948Z,69.98
2018-02-14T21:40:13.256Z,69.82
2018-02-14T21:42:42.528Z,69.84
2018-02-14T21:45:11.970Z,69.71
2018-02-14T21:47:41.258Z,69.63
2018-02-14T21:50:10.645Z,69.60
2018-02-14T21:52:40.070Z,69.66
2018-02-14T21:55:09.403Z,70.51
2018-02-14T21:57:39.927Z,70.96
2018-02-14T22:00:09.951Z,70.72
2018-02-14T22:02:40.641Z,70.64
2018-02-14T22:05:10.420Z,70.61
2018-02-14T22:07:40.096Z,71.01
2018-02-14T22:10:10.690Z,71.34
2018-02-14T22:12:40.390Z,71.56
2018-02-14T22:15:08.861Z,71.81
2018-02-14T22:17:37.879Z,71.42
2018-02-14T22:20:06.171Z,71.05
2018-02-14T22:22:35.238Z,70.99
2018-02-14T22:25:03.533Z,71.42
2018-02-14T22:27:32.621Z,71.74
2018-02-14T22:30:00.897Z,72.19
2018-02-14T22:32:29.173Z,72.46
2018-02-14T22:34:57.469Z,72.07
2018-02-14T22:37:26.501Z,72.20
2018-02-14T22:39:54.771Z,72.87
2018-02-14T22:42:23.060Z,73.94
2018-02-14T22:44:51.388Z,74.13
2018-02-14T22:47:20.433Z,73.96
2018-02-14T22:49:48.723Z,74.17
2018-02-14T22:52:17.849Z,74.73
2018-02-14T22:54:46.891Z,73.91
2018-02-14T22:57:15.200Z,73.59
2018-02-14T22:59:43.476Z,73.63
2018-02-14T23:02:11.740Z,74.01
2018-02-14T23:04:40.042Z,73.89
2018-02-14T23:07:09.075Z,75.47
2018-02-14T23:09:38.605Z,75.44
2018-02-14T23:12:06.896Z,75.46
2018-02-14T23:14:35.175Z,76.49
2018-02-14T23:17:03.439Z,76.85
2018-02-14T23:19:31.733Z,76.78
2018-02-14T23:22:00.018Z,77.48
2018-02-14T23:24:29.056Z,78.08
2018-02-14T23:26:57.348Z,77.44
2018-02-14T23:29:25.620Z,78.43
2018-02-14T23:31:53.892Z,79.38
2018-02-14T23:34:22.173Z,78.80
2018-02-14T23:36:50.469Z,78.57
2018-02-14T23:39:18.740Z,79.29
2018-02-14T23:41:47.020Z,80.28
2018-02-14T23:44:15.303Z,79.65
2018-02-14T23:46:43.574Z,79.94
2018-02-14T23:49:11.852Z,79.69
2018-02-14T23:51:40.850Z,79.39
2018-02-14T23:54:09.120Z,78.71
2018-02-14T23:56:37.408Z,78.95
2018-02-14T23:59:05.689Z,79.15
